sensor_id;sensor_type;location;lat;lon;timestamp;temperature;humidity
19972;DHT22;10147;16.402;102.848;2023-08-21T00:00:47;25.60;99.90
19972;DHT22;10147;16.402;102.848;2023-08-21T00:03:17;25.70;99.90
19972;DHT22;10147;16.402;102.848;2023-08-21T00:05:47;25.70;99.90
19972;DHT22;10147;16.402;102.848;2023-08-21T00:08:17;25.60;99.90
19972;DHT22;10147;16.402;102.848;2023-08-21T00:10:47;25.70;99.90
19972;DHT22;10147;16.402;102.848;2023-08-21T00:13:17;25.70;99.90
19972;DHT22;10147;16.402;102.848;2023-08-21T00:15:48;25.70;99.90
19972;DHT22;10147;16.402;102.848;2023-08-21T00:18:19;25.70;99.90
19972;DHT22;10147;16.402;102.848;2023-08-21T00:20:49;25.60;99.90
19972;DHT22;10147;16.402;102.848;2023-08-21T00:23:18;25.70;99.90
19972;DHT22;10147;16.402;102.848;2023-08-21T00:25:48;25.80;99.90
19972;DHT22;10147;16.402;102.848;2023-08-21T00:28:18;25.80;99.90
19972;DHT22;10147;16.402;102.848;2023-08-21T00:30:49;25.90;99.90
19972;DHT22;10147;16.402;102.848;2023-08-21T00:33:19;25.90;99.90
19972;DHT22;10147;16.402;102.848;2023-08-21T00:35:49;25.90;99.90
19972;DHT22;10147;16.402;102.848;2023-08-21T00:38:19;25.90;99.90
19972;DHT22;10147;16.402;102.848;2023-08-21T00:40:49;25.90;99.90
19972;DHT22;10147;16.402;102.848;2023-08-21T00:43:19;25.90;99.90
19972;DHT22;10147;16.402;102.848;2023-08-21T00:45:50;26.00;99.90
19972;DHT22;10147;16.402;102.848;2023-08-21T00:48:20;26.00;99.90
19972;DHT22;10147;16.402;102.848;2023-08-21T00:50:50;26.00;99.90
19972;DHT22;10147;16.402;102.848;2023-08-21T00:53:21;26.00;99.90
19972;DHT22;10147;16.402;102.848;2023-08-21T00:55:52;26.00;99.90
19972;DHT22;10147;16.402;102.848;2023-08-21T00:58:22;26.10;99.90
19972;DHT22;10147;16.402;102.848;2023-08-21T01:00:52;26.10;99.90
19972;DHT22;10147;16.402;102.848;2023-08-21T01:03:23;26.20;99.90
19972;DHT22;10147;16.402;102.848;2023-08-21T01:05:54;26.20;99.90
19972;DHT22;10147;16.402;102.848;2023-08-21T01:08:45;26.10;99.90
19972;DHT22;10147;16.402;102.848;2023-08-21T01:14:42;26.30;99.90
19972;DHT22;10147;16.402;102.848;2023-08-21T01:17:14;26.30;99.90
19972;DHT22;10147;16.402;102.848;2023-08-21T01:19:49;26.30;99.90
19972;DHT22;10147;16.402;102.848;2023-08-21T01:22:19;26.30;99.90
19972;DHT22;10147;16.402;102.848;2023-08-21T01:24:50;26.30;99.90
19972;DHT22;10147;16.402;102.848;2023-08-21T01:27:21;26.30;99.90
19972;DHT22;10147;16.402;102.848;2023-08-21T01:29:51;26.40;99.90
19972;DHT22;10147;16.402;102.848;2023-08-21T01:32:33;26.50;99.90
19972;DHT22;10147;16.402;102.848;2023-08-21T01:35:06;26.50;99.90
19972;DHT22;10147;16.402;102.848;2023-08-21T01:37:36;26.40;99.90
19972;DHT22;10147;16.402;102.848;2023-08-21T01:40:07;26.50;99.90
19972;DHT22;10147;16.402;102.848;2023-08-21T01:42:38;26.50;99.90
19972;DHT22;10147;16.402;102.848;2023-08-21T01:45:09;26.60;99.90
19972;DHT22;10147;16.402;102.848;2023-08-21T01:47:39;26.60;99.90
19972;DHT22;10147;16.402;102.848;2023-08-21T01:50:09;26.60;99.90
19972;DHT22;10147;16.402;102.848;2023-08-21T01:52:39;26.60;99.90
19972;DHT22;10147;16.402;102.848;2023-08-21T01:55:10;26.70;99.90
19972;DHT22;10147;16.402;102.848;2023-08-21T01:57:40;26.70;99.90
19972;DHT22;10147;16.402;102.848;2023-08-21T02:00:12;26.80;99.90
19972;DHT22;10147;16.402;102.848;2023-08-21T02:02:44;26.80;99.90
19972;DHT22;10147;16.402;102.848;2023-08-21T02:05:14;26.80;99.90
19972;DHT22;10147;16.402;102.848;2023-08-21T02:07:44;26.90;99.90
19972;DHT22;10147;16.402;102.848;2023-08-21T02:10:15;26.80;99.90
19972;DHT22;10147;16.402;102.848;2023-08-21T02:12:45;26.80;99.90
19972;DHT22;10147;16.402;102.848;2023-08-21T02:15:15;26.80;99.90
19972;DHT22;10147;16.402;102.848;2023-08-21T02:17:45;26.80;99.90
19972;DHT22;10147;16.402;102.848;2023-08-21T02:20:15;26.80;99.90
19972;DHT22;10147;16.402;102.848;2023-08-21T02:22:45;26.90;99.90
19972;DHT22;10147;16.402;102.848;2023-08-21T02:25:15;26.90;99.90
19972;DHT22;10147;16.402;102.848;2023-08-21T02:27:45;26.90;99.90
19972;DHT22;10147;16.402;102.848;2023-08-21T02:30:16;26.90;99.90
19972;DHT22;10147;16.402;102.848;2023-08-21T02:32:46;27.00;99.90
19972;DHT22;10147;16.402;102.848;2023-08-21T02:35:16;27.10;99.90
19972;DHT22;10147;16.402;102.848;2023-08-21T02:37:46;27.10;99.90
19972;DHT22;10147;16.402;102.848;2023-08-21T02:40:16;27.10;99.90
19972;DHT22;10147;16.402;102.848;2023-08-21T02:42:46;27.10;99.90
19972;DHT22;10147;16.402;102.848;2023-08-21T02:45:16;27.20;99.90
19972;DHT22;10147;16.402;102.848;2023-08-21T02:47:48;27.20;99.90
19972;DHT22;10147;16.402;102.848;2023-08-21T02:50:18;27.20;99.90
19972;DHT22;10147;16.402;102.848;2023-08-21T02:52:48;27.20;99.90
19972;DHT22;10147;16.402;102.848;2023-08-21T02:55:19;27.30;99.90
19972;DHT22;10147;16.402;102.848;2023-08-21T02:57:50;27.30;99.90
19972;DHT22;10147;16.402;102.848;2023-08-21T03:00:20;27.40;99.90
19972;DHT22;10147;16.402;102.848;2023-08-21T03:02:50;27.30;99.90
19972;DHT22;10147;16.402;102.848;2023-08-21T03:05:20;27.40;99.90
19972;DHT22;10147;16.402;102.848;2023-08-21T03:07:50;27.30;99.90
19972;DHT22;10147;16.402;102.848;2023-08-21T03:10:20;27.30;99.90
19972;DHT22;10147;16.402;102.848;2023-08-21T03:12:53;27.30;99.90
19972;DHT22;10147;16.402;102.848;2023-08-21T03:15:24;27.30;99.90
19972;DHT22;10147;16.402;102.848;2023-08-21T03:17:54;27.30;99.90
19972;DHT22;10147;16.402;102.848;2023-08-21T03:20:24;27.40;99.90
19972;DHT22;10147;16.402;102.848;2023-08-21T03:22:54;27.50;99.90
19972;DHT22;10147;16.402;102.848;2023-08-21T03:25:24;27.60;99.90
19972;DHT22;10147;16.402;102.848;2023-08-21T03:27:54;27.60;99.90
19972;DHT22;10147;16.402;102.848;2023-08-21T03:30:24;27.60;99.90
19972;DHT22;10147;16.402;102.848;2023-08-21T03:32:54;27.60;99.90
19972;DHT22;10147;16.402;102.848;2023-08-21T03:35:24;27.70;99.90
19972;DHT22;10147;16.402;102.848;2023-08-21T03:37:54;27.80;99.90
19972;DHT22;10147;16.402;102.848;2023-08-21T03:40:26;27.80;99.90
19972;DHT22;10147;16.402;102.848;2023-08-21T03:42:56;27.80;99.90
19972;DHT22;10147;16.402;102.848;2023-08-21T03:45:26;27.90;99.90
19972;DHT22;10147;16.402;102.848;2023-08-21T03:47:56;27.90;99.90
19972;DHT22;10147;16.402;102.848;2023-08-21T03:50:26;28.00;99.90
19972;DHT22;10147;16.402;102.848;2023-08-21T03:52:55;27.90;99.90
19972;DHT22;10147;16.402;102.848;2023-08-21T03:55:26;27.80;99.90
19972;DHT22;10147;16.402;102.848;2023-08-21T03:57:56;27.90;99.90
19972;DHT22;10147;16.402;102.848;2023-08-21T04:00:27;28.00;99.90
19972;DHT22;10147;16.402;102.848;2023-08-21T04:02:58;28.10;99.90
19972;DHT22;10147;16.402;102.848;2023-08-21T04:05:28;28.20;99.90
19972;DHT22;10147;16.402;102.848;2023-08-21T04:07:58;28.30;99.90
19972;DHT22;10147;16.402;102.848;2023-08-21T04:10:28;28.30;99.90
19972;DHT22;10147;16.402;102.848;2023-08-21T04:12:58;28.40;99.90
19972;DHT22;10147;16.402;102.848;2023-08-21T04:15:33;28.40;99.90
19972;DHT22;10147;16.402;102.848;2023-08-21T04:18:05;28.40;99.90
19972;DHT22;10147;16.402;102.848;2023-08-21T04:20:36;28.40;99.90
19972;DHT22;10147;16.402;102.848;2023-08-21T04:23:07;28.60;99.90
19972;DHT22;10147;16.402;102.848;2023-08-21T04:25:37;28.60;99.90
19972;DHT22;10147;16.402;102.848;2023-08-21T04:28:07;28.70;99.90
19972;DHT22;10147;16.402;102.848;2023-08-21T04:30:40;28.70;99.90
19972;DHT22;10147;16.402;102.848;2023-08-21T04:33:11;28.70;99.90
19972;DHT22;10147;16.402;102.848;2023-08-21T04:35:41;28.70;99.90
19972;DHT22;10147;16.402;102.848;2023-08-21T04:38:11;28.70;99.90
19972;DHT22;10147;16.402;102.848;2023-08-21T04:40:41;28.80;99.90
19972;DHT22;10147;16.402;102.848;2023-08-21T04:43:11;28.80;99.90
19972;DHT22;10147;16.402;102.848;2023-08-21T04:45:51;28.70;99.90
19972;DHT22;10147;16.402;102.848;2023-08-21T04:48:25;28.70;99.90
19972;DHT22;10147;16.402;102.848;2023-08-21T04:50:55;28.60;99.90
19972;DHT22;10147;16.402;102.848;2023-08-21T04:53:26;28.60;99.90
19972;DHT22;10147;16.402;102.848;2023-08-21T04:55:59;28.70;99.90
19972;DHT22;10147;16.402;102.848;2023-08-21T04:58:32;28.80;99.90
19972;DHT22;10147;16.402;102.848;2023-08-21T05:01:04;28.70;99.90
19972;DHT22;10147;16.402;102.848;2023-08-21T05:03:37;28.80;99.90
19972;DHT22;10147;16.402;102.848;2023-08-21T05:06:07;28.80;99.90
19972;DHT22;10147;16.402;102.848;2023-08-21T05:08:38;28.70;99.90
19972;DHT22;10147;16.402;102.848;2023-08-21T05:11:09;28.60;99.90
19972;DHT22;10147;16.402;102.848;2023-08-21T05:13:42;28.60;99.90
19972;DHT22;10147;16.402;102.848;2023-08-21T05:16:14;28.50;99.90
19972;DHT22;10147;16.402;102.848;2023-08-21T05:18:45;28.50;99.90
19972;DHT22;10147;16.402;102.848;2023-08-21T05:21:16;28.50;99.90
19972;DHT22;10147;16.402;102.848;2023-08-21T05:23:47;28.50;99.90
19972;DHT22;10147;16.402;102.848;2023-08-21T05:26:16;28.50;99.90
19972;DHT22;10147;16.402;102.848;2023-08-21T05:28:46;28.60;99.90
19972;DHT22;10147;16.402;102.848;2023-08-21T05:31:16;28.60;99.90
19972;DHT22;10147;16.402;102.848;2023-08-21T05:33:51;28.60;99.90
19972;DHT22;10147;16.402;102.848;2023-08-21T05:36:21;28.60;99.90
19972;DHT22;10147;16.402;102.848;2023-08-21T05:38:56;28.70;99.90
19972;DHT22;10147;16.402;102.848;2023-08-21T05:41:28;28.70;99.90
19972;DHT22;10147;16.402;102.848;2023-08-21T05:43:58;28.70;99.90
19972;DHT22;10147;16.402;102.848;2023-08-21T05:46:28;28.80;99.90
19972;DHT22;10147;16.402;102.848;2023-08-21T05:48:59;28.90;99.90
19972;DHT22;10147;16.402;102.848;2023-08-21T05:54:33;29.00;99.90
19972;DHT22;10147;16.402;102.848;2023-08-21T05:57:04;29.10;99.90
19972;DHT22;10147;16.402;102.848;2023-08-21T05:59:34;29.10;99.90
19972;DHT22;10147;16.402;102.848;2023-08-21T06:02:05;29.10;99.90
19972;DHT22;10147;16.402;102.848;2023-08-21T06:04:35;29.00;99.90
19972;DHT22;10147;16.402;102.848;2023-08-21T06:07:05;29.00;99.90
19972;DHT22;10147;16.402;102.848;2023-08-21T06:09:36;29.00;99.90
19972;DHT22;10147;16.402;102.848;2023-08-21T06:12:09;29.00;99.90
19972;DHT22;10147;16.402;102.848;2023-08-21T06:14:41;29.10;99.90
19972;DHT22;10147;16.402;102.848;2023-08-21T06:17:12;29.40;99.90
19972;DHT22;10147;16.402;102.848;2023-08-21T06:19:42;29.80;99.90
19972;DHT22;10147;16.402;102.848;2023-08-21T06:22:12;30.10;99.90
19972;DHT22;10147;16.402;102.848;2023-08-21T06:24:42;30.10;99.90
19972;DHT22;10147;16.402;102.848;2023-08-21T06:27:14;30.10;99.90
19972;DHT22;10147;16.402;102.848;2023-08-21T06:29:45;30.20;99.90
19972;DHT22;10147;16.402;102.848;2023-08-21T06:32:15;30.20;99.90
19972;DHT22;10147;16.402;102.848;2023-08-21T06:34:48;30.00;99.90
19972;DHT22;10147;16.402;102.848;2023-08-21T06:37:18;30.20;99.90
19972;DHT22;10147;16.402;102.848;2023-08-21T06:39:48;30.20;99.90
19972;DHT22;10147;16.402;102.848;2023-08-21T06:42:18;30.00;99.90
19972;DHT22;10147;16.402;102.848;2023-08-21T06:44:50;29.90;99.90
19972;DHT22;10147;16.402;102.848;2023-08-21T06:47:20;29.90;99.90
19972;DHT22;10147;16.402;102.848;2023-08-21T06:49:50;29.90;99.90
19972;DHT22;10147;16.402;102.848;2023-08-21T06:52:20;30.00;99.90
19972;DHT22;10147;16.402;102.848;2023-08-21T06:54:50;30.20;99.90
19972;DHT22;10147;16.402;102.848;2023-08-21T06:57:20;30.20;99.90
19972;DHT22;10147;16.402;102.848;2023-08-21T06:59:50;30.40;99.90
19972;DHT22;10147;16.402;102.848;2023-08-21T07:02:20;30.70;99.90
19972;DHT22;10147;16.402;102.848;2023-08-21T07:04:50;31.10;99.90
19972;DHT22;10147;16.402;102.848;2023-08-21T07:07:20;31.10;99.90
19972;DHT22;10147;16.402;102.848;2023-08-21T07:09:51;31.20;99.90
19972;DHT22;10147;16.402;102.848;2023-08-21T07:12:22;31.00;99.90
19972;DHT22;10147;16.402;102.848;2023-08-21T07:14:52;30.50;99.90
19972;DHT22;10147;16.402;102.848;2023-08-21T07:17:22;30.80;99.90
19972;DHT22;10147;16.402;102.848;2023-08-21T07:19:52;31.10;99.90
19972;DHT22;10147;16.402;102.848;2023-08-21T07:22:22;31.40;99.90
19972;DHT22;10147;16.402;102.848;2023-08-21T07:24:52;31.70;99.90
19972;DHT22;10147;16.402;102.848;2023-08-21T07:27:22;31.90;99.90
19972;DHT22;10147;16.402;102.848;2023-08-21T07:29:52;31.90;99.90
19972;DHT22;10147;16.402;102.848;2023-08-21T07:32:22;31.80;99.90
19972;DHT22;10147;16.402;102.848;2023-08-21T07:34:53;31.70;99.90
19972;DHT22;10147;16.402;102.848;2023-08-21T07:37:24;31.80;99.90
19972;DHT22;10147;16.402;102.848;2023-08-21T07:39:53;31.50;99.90
19972;DHT22;10147;16.402;102.848;2023-08-21T07:42:27;31.40;99.90
19972;DHT22;10147;16.402;102.848;2023-08-21T07:44:57;31.60;99.90
19972;DHT22;10147;16.402;102.848;2023-08-21T07:47:30;32.00;99.90
19972;DHT22;10147;16.402;102.848;2023-08-21T07:50:06;32.10;99.90
19972;DHT22;10147;16.402;102.848;2023-08-21T07:52:36;32.00;99.90
19972;DHT22;10147;16.402;102.848;2023-08-21T07:55:08;32.10;99.90
19972;DHT22;10147;16.402;102.848;2023-08-21T07:57:40;32.30;99.90
19972;DHT22;10147;16.402;102.848;2023-08-21T08:00:11;32.30;99.90
19972;DHT22;10147;16.402;102.848;2023-08-21T08:02:43;32.50;99.90
19972;DHT22;10147;16.402;102.848;2023-08-21T08:05:13;32.50;99.90
19972;DHT22;10147;16.402;102.848;2023-08-21T08:07:44;32.60;99.90
19972;DHT22;10147;16.402;102.848;2023-08-21T08:10:14;32.50;99.90
19972;DHT22;10147;16.402;102.848;2023-08-21T08:12:43;32.50;99.90
19972;DHT22;10147;16.402;102.848;2023-08-21T08:15:13;32.40;99.90
19972;DHT22;10147;16.402;102.848;2023-08-21T08:17:43;32.30;99.90
19972;DHT22;10147;16.402;102.848;2023-08-21T08:20:15;32.30;99.90
19972;DHT22;10147;16.402;102.848;2023-08-21T08:22:45;32.40;99.90
19972;DHT22;10147;16.402;102.848;2023-08-21T08:25:15;32.50;99.90
19972;DHT22;10147;16.402;102.848;2023-08-21T08:27:46;32.40;99.90
19972;DHT22;10147;16.402;102.848;2023-08-21T08:30:16;32.70;99.90
19972;DHT22;10147;16.402;102.848;2023-08-21T08:32:46;32.70;99.90
19972;DHT22;10147;16.402;102.848;2023-08-21T08:35:16;32.70;99.90
19972;DHT22;10147;16.402;102.848;2023-08-21T08:37:46;32.70;99.90
19972;DHT22;10147;16.402;102.848;2023-08-21T08:40:16;32.70;99.90
19972;DHT22;10147;16.402;102.848;2023-08-21T08:42:47;32.70;99.90
19972;DHT22;10147;16.402;102.848;2023-08-21T08:45:27;32.50;99.90
19972;DHT22;10147;16.402;102.848;2023-08-21T08:48:05;32.40;99.90
19972;DHT22;10147;16.402;102.848;2023-08-21T08:50:35;32.40;99.90
19972;DHT22;10147;16.402;102.848;2023-08-21T08:53:07;32.40;99.90
19972;DHT22;10147;16.402;102.848;2023-08-21T08:55:44;32.40;99.90
19972;DHT22;10147;16.402;102.848;2023-08-21T08:58:15;32.50;99.90
19972;DHT22;10147;16.402;102.848;2023-08-21T09:00:45;32.50;99.90
19972;DHT22;10147;16.402;102.848;2023-08-21T09:03:16;32.40;99.90
19972;DHT22;10147;16.402;102.848;2023-08-21T09:05:47;32.30;99.90
19972;DHT22;10147;16.402;102.848;2023-08-21T09:08:17;32.40;99.90
19972;DHT22;10147;16.402;102.848;2023-08-21T09:10:47;32.30;99.90
19972;DHT22;10147;16.402;102.848;2023-08-21T09:13:19;32.30;99.90
19972;DHT22;10147;16.402;102.848;2023-08-21T09:15:54;32.30;99.90
19972;DHT22;10147;16.402;102.848;2023-08-21T09:18:25;32.30;99.90
19972;DHT22;10147;16.402;102.848;2023-08-21T09:20:56;32.30;99.90
19972;DHT22;10147;16.402;102.848;2023-08-21T09:23:28;32.30;99.90
19972;DHT22;10147;16.402;102.848;2023-08-21T09:25:59;32.30;99.90
19972;DHT22;10147;16.402;102.848;2023-08-21T09:28:28;32.30;99.90
19972;DHT22;10147;16.402;102.848;2023-08-21T09:30:59;32.20;99.90
19972;DHT22;10147;16.402;102.848;2023-08-21T09:33:29;32.30;99.90
19972;DHT22;10147;16.402;102.848;2023-08-21T09:35:59;32.40;99.90
19972;DHT22;10147;16.402;102.848;2023-08-21T09:38:29;32.30;99.90
19972;DHT22;10147;16.402;102.848;2023-08-21T09:40:59;32.40;99.90
19972;DHT22;10147;16.402;102.848;2023-08-21T09:43:29;32.30;99.90
19972;DHT22;10147;16.402;102.848;2023-08-21T09:45:59;32.30;99.90
19972;DHT22;10147;16.402;102.848;2023-08-21T09:48:29;32.20;99.90
19972;DHT22;10147;16.402;102.848;2023-08-21T09:51:00;32.20;99.90
19972;DHT22;10147;16.402;102.848;2023-08-21T09:53:33;32.20;99.90
19972;DHT22;10147;16.402;102.848;2023-08-21T09:56:04;32.30;99.90
19972;DHT22;10147;16.402;102.848;2023-08-21T09:58:36;32.20;99.90
19972;DHT22;10147;16.402;102.848;2023-08-21T10:01:08;32.20;99.90
19972;DHT22;10147;16.402;102.848;2023-08-21T10:03:44;32.30;99.90
19972;DHT22;10147;16.402;102.848;2023-08-21T10:06:21;32.20;99.90
19972;DHT22;10147;16.402;102.848;2023-08-21T10:08:54;32.30;99.90
19972;DHT22;10147;16.402;102.848;2023-08-21T10:11:25;32.20;99.90
19972;DHT22;10147;16.402;102.848;2023-08-21T10:13:56;32.20;99.90
19972;DHT22;10147;16.402;102.848;2023-08-21T10:16:27;32.30;99.90
19972;DHT22;10147;16.402;102.848;2023-08-21T10:19:03;32.30;99.90
19972;DHT22;10147;16.402;102.848;2023-08-21T10:21:38;32.20;99.90
19972;DHT22;10147;16.402;102.848;2023-08-21T10:24:08;32.20;99.90
19972;DHT22;10147;16.402;102.848;2023-08-21T10:26:39;32.20;99.90
19972;DHT22;10147;16.402;102.848;2023-08-21T10:29:14;32.10;99.90
19972;DHT22;10147;16.402;102.848;2023-08-21T10:31:44;32.10;99.90
19972;DHT22;10147;16.402;102.848;2023-08-21T10:34:15;32.00;99.90
19972;DHT22;10147;16.402;102.848;2023-08-21T10:37:10;32.00;99.90
19972;DHT22;10147;16.402;102.848;2023-08-21T10:40:03;32.00;99.90
19972;DHT22;10147;16.402;102.848;2023-08-21T10:42:40;31.90;99.90
19972;DHT22;10147;16.402;102.848;2023-08-21T10:45:12;31.80;99.90
19972;DHT22;10147;16.402;102.848;2023-08-21T10:47:42;31.90;99.90
19972;DHT22;10147;16.402;102.848;2023-08-21T10:50:14;31.80;99.90
19972;DHT22;10147;16.402;102.848;2023-08-21T10:52:44;31.70;99.90
19972;DHT22;10147;16.402;102.848;2023-08-21T10:55:17;31.70;99.90
19972;DHT22;10147;16.402;102.848;2023-08-21T10:57:49;31.70;99.90
19972;DHT22;10147;16.402;102.848;2023-08-21T11:00:20;31.70;99.90
19972;DHT22;10147;16.402;102.848;2023-08-21T11:02:50;31.50;99.90
19972;DHT22;10147;16.402;102.848;2023-08-21T11:05:21;31.60;99.90
19972;DHT22;10147;16.402;102.848;2023-08-21T11:07:51;31.60;99.90
19972;DHT22;10147;16.402;102.848;2023-08-21T11:10:27;31.60;99.90
19972;DHT22;10147;16.402;102.848;2023-08-21T11:12:58;31.50;99.90
19972;DHT22;10147;16.402;102.848;2023-08-21T11:15:33;31.50;99.90
19972;DHT22;10147;16.402;102.848;2023-08-21T11:18:04;31.50;99.90
19972;DHT22;10147;16.402;102.848;2023-08-21T11:20:35;31.50;99.90
19972;DHT22;10147;16.402;102.848;2023-08-21T11:23:06;31.40;99.90
19972;DHT22;10147;16.402;102.848;2023-08-21T11:25:40;31.40;99.90
19972;DHT22;10147;16.402;102.848;2023-08-21T11:28:11;31.30;99.90
19972;DHT22;10147;16.402;102.848;2023-08-21T11:30:45;31.20;99.90
19972;DHT22;10147;16.402;102.848;2023-08-21T11:33:15;31.20;99.90
19972;DHT22;10147;16.402;102.848;2023-08-21T11:35:47;31.20;99.90
19972;DHT22;10147;16.402;102.848;2023-08-21T11:38:19;31.10;99.90
19972;DHT22;10147;16.402;102.848;2023-08-21T11:40:57;31.00;99.90
19972;DHT22;10147;16.402;102.848;2023-08-21T11:43:47;31.00;99.90
19972;DHT22;10147;16.402;102.848;2023-08-21T11:46:18;31.00;99.90
19972;DHT22;10147;16.402;102.848;2023-08-21T11:48:49;31.00;99.90
19972;DHT22;10147;16.402;102.848;2023-08-21T11:51:22;31.00;99.90
19972;DHT22;10147;16.402;102.848;2023-08-21T11:53:52;30.90;99.90
19972;DHT22;10147;16.402;102.848;2023-08-21T11:56:28;30.80;99.90
19972;DHT22;10147;16.402;102.848;2023-08-21T11:58:58;30.80;99.90
19972;DHT22;10147;16.402;102.848;2023-08-21T12:01:33;30.60;99.90
19972;DHT22;10147;16.402;102.848;2023-08-21T12:04:14;30.60;99.90
19972;DHT22;10147;16.402;102.848;2023-08-21T12:06:45;30.50;99.90
19972;DHT22;10147;16.402;102.848;2023-08-21T12:09:16;30.30;99.90
19972;DHT22;10147;16.402;102.848;2023-08-21T12:11:48;30.20;99.90
19972;DHT22;10147;16.402;102.848;2023-08-21T12:14:18;30.20;99.90
19972;DHT22;10147;16.402;102.848;2023-08-21T12:16:48;30.10;99.90
19972;DHT22;10147;16.402;102.848;2023-08-21T12:19:18;30.00;99.90
19972;DHT22;10147;16.402;102.848;2023-08-21T12:21:49;30.10;99.90
19972;DHT22;10147;16.402;102.848;2023-08-21T12:24:19;30.10;99.90
19972;DHT22;10147;16.402;102.848;2023-08-21T12:26:49;29.90;99.90
19972;DHT22;10147;16.402;102.848;2023-08-21T12:29:19;29.80;99.90
19972;DHT22;10147;16.402;102.848;2023-08-21T12:31:49;29.80;99.90
19972;DHT22;10147;16.402;102.848;2023-08-21T12:34:19;29.90;99.90
19972;DHT22;10147;16.402;102.848;2023-08-21T12:36:52;29.90;99.90
19972;DHT22;10147;16.402;102.848;2023-08-21T12:39:22;29.80;99.90
19972;DHT22;10147;16.402;102.848;2023-08-21T12:41:51;29.80;99.90
19972;DHT22;10147;16.402;102.848;2023-08-21T12:44:21;29.80;99.90
19972;DHT22;10147;16.402;102.848;2023-08-21T12:46:51;29.80;99.90
19972;DHT22;10147;16.402;102.848;2023-08-21T12:49:21;29.80;99.90
19972;DHT22;10147;16.402;102.848;2023-08-21T12:51:51;29.80;99.90
19972;DHT22;10147;16.402;102.848;2023-08-21T12:54:22;29.70;99.90
19972;DHT22;10147;16.402;102.848;2023-08-21T12:56:52;29.70;99.90
19972;DHT22;10147;16.402;102.848;2023-08-21T12:59:23;29.70;99.90
19972;DHT22;10147;16.402;102.848;2023-08-21T13:01:53;29.70;99.90
19972;DHT22;10147;16.402;102.848;2023-08-21T13:04:23;29.80;99.90
19972;DHT22;10147;16.402;102.848;2023-08-21T13:06:55;29.70;99.90
19972;DHT22;10147;16.402;102.848;2023-08-21T13:09:25;29.70;99.90
19972;DHT22;10147;16.402;102.848;2023-08-21T13:11:55;29.70;99.90
19972;DHT22;10147;16.402;102.848;2023-08-21T13:14:25;29.60;99.90
19972;DHT22;10147;16.402;102.848;2023-08-21T13:16:59;29.50;99.90
19972;DHT22;10147;16.402;102.848;2023-08-21T13:19:29;29.50;99.90
19972;DHT22;10147;16.402;102.848;2023-08-21T13:21:59;29.60;99.90
19972;DHT22;10147;16.402;102.848;2023-08-21T13:24:29;29.60;99.90
19972;DHT22;10147;16.402;102.848;2023-08-21T13:27:00;29.60;99.90
19972;DHT22;10147;16.402;102.848;2023-08-21T13:29:30;29.50;99.90
19972;DHT22;10147;16.402;102.848;2023-08-21T13:32:00;29.50;99.90
19972;DHT22;10147;16.402;102.848;2023-08-21T13:34:30;29.40;99.90
19972;DHT22;10147;16.402;102.848;2023-08-21T13:37:00;29.40;99.90
19972;DHT22;10147;16.402;102.848;2023-08-21T13:39:30;29.50;99.90
19972;DHT22;10147;16.402;102.848;2023-08-21T13:42:04;29.40;99.90
19972;DHT22;10147;16.402;102.848;2023-08-21T13:44:34;29.40;99.90
19972;DHT22;10147;16.402;102.848;2023-08-21T13:47:04;29.40;99.90
19972;DHT22;10147;16.402;102.848;2023-08-21T13:49:34;29.40;99.90
19972;DHT22;10147;16.402;102.848;2023-08-21T13:52:04;29.40;99.90
19972;DHT22;10147;16.402;102.848;2023-08-21T13:54:34;29.30;99.90
19972;DHT22;10147;16.402;102.848;2023-08-21T13:57:04;29.40;99.90
19972;DHT22;10147;16.402;102.848;2023-08-21T13:59:34;29.30;99.90
19972;DHT22;10147;16.402;102.848;2023-08-21T14:02:05;29.30;99.90
19972;DHT22;10147;16.402;102.848;2023-08-21T14:04:35;29.30;99.90
19972;DHT22;10147;16.402;102.848;2023-08-21T14:07:05;29.20;99.90
19972;DHT22;10147;16.402;102.848;2023-08-21T14:09:35;28.90;99.90
19972;DHT22;10147;16.402;102.848;2023-08-21T14:12:05;28.80;99.90
19972;DHT22;10147;16.402;102.848;2023-08-21T14:14:36;28.70;99.90
19972;DHT22;10147;16.402;102.848;2023-08-21T14:17:07;28.60;99.90
19972;DHT22;10147;16.402;102.848;2023-08-21T14:19:37;28.70;99.90
19972;DHT22;10147;16.402;102.848;2023-08-21T14:22:07;28.60;99.90
19972;DHT22;10147;16.402;102.848;2023-08-21T14:24:37;28.70;99.90
19972;DHT22;10147;16.402;102.848;2023-08-21T14:27:07;28.60;99.90
19972;DHT22;10147;16.402;102.848;2023-08-21T14:29:37;28.50;99.90
19972;DHT22;10147;16.402;102.848;2023-08-21T14:32:07;28.60;99.90
19972;DHT22;10147;16.402;102.848;2023-08-21T14:34:37;28.50;99.90
19972;DHT22;10147;16.402;102.848;2023-08-21T14:37:07;28.60;99.90
19972;DHT22;10147;16.402;102.848;2023-08-21T14:39:37;28.40;99.90
19972;DHT22;10147;16.402;102.848;2023-08-21T14:42:07;28.30;99.90
19972;DHT22;10147;16.402;102.848;2023-08-21T14:44:37;28.30;99.90
19972;DHT22;10147;16.402;102.848;2023-08-21T14:47:07;28.30;99.90
19972;DHT22;10147;16.402;102.848;2023-08-21T14:49:37;28.20;99.90
19972;DHT22;10147;16.402;102.848;2023-08-21T14:52:07;28.00;99.90
19972;DHT22;10147;16.402;102.848;2023-08-21T14:54:37;28.00;99.90
19972;DHT22;10147;16.402;102.848;2023-08-21T14:57:08;27.90;99.90
19972;DHT22;10147;16.402;102.848;2023-08-21T14:59:38;28.00;99.90
19972;DHT22;10147;16.402;102.848;2023-08-21T15:02:08;27.90;99.90
19972;DHT22;10147;16.402;102.848;2023-08-21T15:04:38;27.80;99.90
19972;DHT22;10147;16.402;102.848;2023-08-21T15:07:08;27.70;99.90
19972;DHT22;10147;16.402;102.848;2023-08-21T15:09:38;27.60;99.90
19972;DHT22;10147;16.402;102.848;2023-08-21T15:12:08;27.60;99.90
19972;DHT22;10147;16.402;102.848;2023-08-21T15:14:38;27.60;99.90
19972;DHT22;10147;16.402;102.848;2023-08-21T15:17:09;27.50;99.90
19972;DHT22;10147;16.402;102.848;2023-08-21T15:19:48;27.50;99.90
19972;DHT22;10147;16.402;102.848;2023-08-21T15:22:18;27.50;99.90
19972;DHT22;10147;16.402;102.848;2023-08-21T15:24:50;27.50;99.90
19972;DHT22;10147;16.402;102.848;2023-08-21T15:27:20;27.50;99.90
19972;DHT22;10147;16.402;102.848;2023-08-21T15:29:50;27.40;99.90
19972;DHT22;10147;16.402;102.848;2023-08-21T15:32:20;27.30;99.90